createdAt,value
2023-08-24T00:02:18.012Z,49.07
2023-08-24T00:04:45.161Z,48.91
2023-08-24T00:07:12.241Z,49.11
2023-08-24T00:09:39.347Z,49.28
2023-08-24T00:12:07.823Z,49.11
2023-08-24T00:14:35.037Z,48.84
2023-08-24T00:17:02.228Z,49.14
2023-08-24T00:19:29.435Z,49.17
2023-08-24T00:21:56.517Z,49.25
2023-08-24T00:24:23.643Z,49.21
2023-08-24T00:26:51.076Z,49.61
2023-08-24T00:29:18.347Z,49.55
2023-08-24T00:31:45.511Z,49.70
2023-08-24T00:34:12.665Z,49.56
2023-08-24T00:36:40.545Z,49.96
2023-08-24T00:39:07.862Z,50.11
2023-08-24T00:41:35.386Z,50.24
2023-08-24T00:44:03.153Z,50.46
2023-08-24T00:46:32.114Z,50.41
2023-08-24T00:49:01.274Z,50.43
2023-08-24T00:51:28.914Z,50.77
2023-08-24T00:53:58.586Z,50.44
2023-08-24T00:56:25.998Z,50.60
2023-08-24T00:58:55.263Z,50.63
2023-08-24T01:01:22.596Z,50.98
2023-08-24T01:03:49.794Z,51.12
2023-08-24T01:06:17.092Z,51.30
2023-08-24T01:08:44.353Z,51.35
2023-08-24T01:12:03.822Z,51.35
2023-08-24T01:14:52.158Z,51.45
2023-08-24T01:17:25.060Z,51.35
2023-08-24T01:19:52.518Z,51.26
2023-08-24T01:22:29.230Z,51.24
2023-08-24T01:25:18.436Z,51.39
2023-08-24T01:27:46.490Z,51.32
2023-08-24T01:30:14.428Z,51.28
2023-08-24T01:32:42.320Z,51.49
2023-08-24T01:35:10.661Z,51.25
2023-08-24T01:37:39.294Z,51.10
2023-08-24T01:40:34.057Z,51.44
2023-08-24T01:43:09.353Z,51.08
2023-08-24T01:45:36.682Z,51.11
2023-08-24T01:48:05.250Z,51.62
2023-08-24T01:50:33.941Z,51.55
2023-08-24T01:53:02.026Z,51.60
2023-08-24T01:55:29.905Z,51.48
2023-08-24T01:57:57.769Z,51.84
2023-08-24T02:00:25.307Z,51.66
2023-08-24T02:02:52.690Z,51.81
2023-08-24T02:05:20.426Z,51.75
2023-08-24T02:07:52.286Z,52.04
2023-08-24T02:10:19.879Z,52.51
2023-08-24T02:12:47.034Z,52.51
2023-08-24T02:15:14.221Z,52.10
2023-08-24T02:17:41.399Z,52.18
2023-08-24T02:20:09.898Z,52.09
2023-08-24T02:22:37.198Z,52.09
2023-08-24T02:25:06.245Z,52.15
2023-08-24T02:27:34.352Z,52.20
2023-08-24T02:30:01.718Z,52.70
2023-08-24T02:32:29.091Z,52.38
2023-08-24T02:34:56.312Z,52.47
2023-08-24T02:37:23.784Z,52.27
2023-08-24T02:39:51.002Z,52.54
2023-08-24T02:42:18.140Z,52.65
2023-08-24T02:44:45.457Z,52.67
2023-08-24T02:47:12.571Z,52.42
2023-08-24T02:49:40.034Z,52.36
2023-08-24T02:52:07.378Z,52.47
2023-08-24T02:54:34.662Z,52.54
2023-08-24T02:57:01.795Z,52.47
2023-08-24T02:59:28.907Z,52.58
2023-08-24T03:01:56.074Z,52.78
2023-08-24T03:04:23.552Z,53.01
2023-08-24T03:06:53.192Z,52.74
2023-08-24T03:09:20.371Z,52.94
2023-08-24T03:11:47.546Z,52.82
2023-08-24T03:14:14.686Z,52.71
2023-08-24T03:16:41.800Z,52.96
2023-08-24T03:19:08.986Z,53.03
2023-08-24T03:21:36.143Z,53.32
2023-08-24T03:24:05.526Z,53.32
2023-08-24T03:26:33.006Z,53.25
2023-08-24T03:29:00.135Z,53.08
2023-08-24T03:31:27.910Z,53.23
2023-08-24T03:33:55.667Z,53.21
2023-08-24T03:36:23.038Z,53.21
2023-08-24T03:38:50.299Z,53.27
2023-08-24T03:41:17.466Z,53.33
2023-08-24T03:43:44.971Z,53.05
2023-08-24T03:46:12.344Z,52.94
2023-08-24T03:48:42.786Z,53.29
2023-08-24T03:51:10.049Z,53.30
2023-08-24T03:53:37.783Z,53.34
2023-08-24T03:56:07.686Z,53.17
2023-08-24T03:58:37.666Z,53.26
2023-08-24T04:01:05.419Z,53.40
2023-08-24T04:03:32.686Z,53.17
2023-08-24T04:05:59.860Z,53.36
2023-08-24T04:08:26.993Z,53.18
2023-08-24T04:10:54.090Z,53.07
2023-08-24T04:13:21.436Z,52.87
2023-08-24T04:15:48.598Z,52.95
2023-08-24T04:18:15.818Z,53.00
2023-08-24T04:20:43.097Z,52.65
2023-08-24T04:23:11.421Z,52.58
2023-08-24T04:25:41.566Z,52.71
2023-08-24T04:28:08.807Z,52.44
2023-08-24T04:30:35.915Z,52.41
2023-08-24T04:33:05.073Z,52.12
2023-08-24T04:35:37.089Z,51.83
2023-08-24T04:38:04.621Z,51.79
2023-08-24T04:40:36.565Z,51.79
2023-08-24T04:43:04.528Z,51.76
2023-08-24T04:45:31.600Z,51.85
2023-08-24T04:48:01.304Z,52.22
2023-08-24T04:50:28.452Z,52.16
2023-08-24T04:52:55.970Z,52.13
2023-08-24T04:55:23.972Z,52.21
2023-08-24T04:57:51.060Z,51.66
2023-08-24T05:00:19.774Z,51.24
2023-08-24T05:02:46.920Z,51.27
2023-08-24T05:05:17.833Z,51.44
2023-08-24T05:07:44.915Z,51.15
2023-08-24T05:10:12.371Z,50.90
2023-08-24T05:12:39.488Z,50.68
2023-08-24T05:15:07.619Z,50.68
2023-08-24T05:17:34.888Z,50.39
2023-08-24T05:20:02.115Z,50.28
2023-08-24T05:22:29.304Z,50.00
2023-08-24T05:24:56.425Z,49.43
2023-08-24T05:27:23.560Z,49.07
2023-08-24T05:29:50.686Z,48.98
2023-08-24T05:32:18.334Z,48.81
2023-08-24T05:34:47.516Z,48.58
2023-08-24T05:37:14.700Z,48.41
2023-08-24T05:39:41.828Z,48.17
2023-08-24T05:42:10.429Z,47.98
2023-08-24T05:44:37.692Z,48.16
2023-08-24T05:47:05.049Z,47.82
2023-08-24T05:49:32.376Z,47.53
2023-08-24T05:51:59.508Z,47.34
2023-08-24T05:54:26.554Z,47.39
2023-08-24T05:56:53.670Z,47.23
2023-08-24T05:59:22.360Z,46.54
2023-08-24T06:01:49.486Z,45.95
2023-08-24T06:04:16.610Z,45.74
2023-08-24T06:06:43.756Z,45.76
2023-08-24T06:09:11.370Z,45.50
2023-08-24T06:11:38.657Z,45.48
2023-08-24T06:14:05.840Z,44.89
2023-08-24T06:16:32.972Z,44.73
2023-08-24T06:19:00.103Z,44.65
2023-08-24T06:21:27.300Z,44.48
2023-08-24T06:23:54.374Z,44.47
2023-08-24T06:26:21.508Z,44.24
2023-08-24T06:28:48.863Z,44.09
2023-08-24T06:31:17.529Z,43.94
2023-08-24T06:33:44.786Z,43.36
2023-08-24T06:36:13.328Z,42.89
2023-08-24T06:38:40.504Z,42.41
2023-08-24T06:41:12.234Z,42.25
2023-08-24T06:43:40.367Z,42.30
2023-08-24T06:46:11.027Z,41.69
2023-08-24T06:48:38.657Z,41.31
2023-08-24T06:51:05.805Z,40.99
2023-08-24T06:53:33.044Z,40.76
2023-08-24T06:56:00.146Z,41.17
2023-08-24T06:58:27.461Z,41.01
2023-08-24T07:00:55.381Z,40.62
2023-08-24T07:03:22.607Z,40.50
2023-08-24T07:05:50.514Z,40.26
2023-08-24T07:08:17.746Z,40.06
2023-08-24T07:10:45.100Z,39.82
2023-08-24T07:13:12.286Z,39.61
2023-08-24T07:15:39.534Z,39.39
2023-08-24T07:18:08.302Z,39.22
2023-08-24T07:20:36.619Z,39.34
2023-08-24T07:23:04.078Z,38.94
2023-08-24T07:25:31.486Z,39.32
2023-08-24T07:28:02.439Z,39.17
2023-08-24T07:30:33.961Z,38.61
2023-08-24T07:33:04.660Z,38.27
2023-08-24T07:35:32.220Z,37.97
2023-08-24T07:37:59.546Z,38.20
2023-08-24T07:40:27.387Z,38.11
2023-08-24T07:42:57.477Z,38.09
2023-08-24T07:45:25.739Z,38.11
2023-08-24T07:47:53.598Z,37.38
2023-08-24T07:50:21.555Z,37.53
2023-08-24T07:52:48.686Z,37.28
2023-08-24T07:55:17.670Z,36.86
2023-08-24T07:57:44.869Z,36.86
2023-08-24T08:00:14.791Z,37.03
2023-08-24T08:02:42.738Z,37.36
2023-08-24T08:05:13.848Z,36.91
2023-08-24T08:07:41.282Z,36.94
2023-08-24T08:10:09.046Z,37.07
2023-08-24T08:12:36.609Z,36.48
2023-08-24T08:15:04.250Z,36.46
2023-08-24T08:17:32.094Z,36.01
2023-08-24T08:19:59.542Z,36.25
2023-08-24T08:22:26.901Z,36.03
2023-08-24T08:25:04.235Z,35.85
2023-08-24T08:27:31.349Z,36.08
2023-08-24T08:29:58.459Z,36.28
2023-08-24T08:32:28.347Z,35.63
2023-08-24T08:35:01.251Z,35.63
2023-08-24T08:37:29.133Z,35.41
2023-08-24T08:39:56.324Z,35.53
2023-08-24T08:42:23.769Z,34.94
2023-08-24T08:44:53.386Z,34.60
2023-08-24T08:47:23.109Z,34.50
2023-08-24T08:49:50.872Z,34.60
2023-08-24T08:52:18.091Z,34.15
2023-08-24T08:54:45.306Z,34.01
2023-08-24T08:57:13.117Z,33.68
2023-08-24T08:59:40.851Z,33.48
2023-08-24T09:02:16.246Z,33.41
2023-08-24T09:04:46.080Z,32.52
2023-08-24T09:07:16.532Z,31.55
2023-08-24T09:09:44.818Z,32.35
2023-08-24T09:12:12.136Z,32.73
2023-08-24T09:14:39.384Z,32.33
2023-08-24T09:17:06.579Z,32.53
2023-08-24T09:19:36.579Z,32.32
2023-08-24T09:22:07.030Z,31.67
2023-08-24T09:24:37.491Z,32.14
2023-08-24T09:27:22.473Z,31.56
2023-08-24T09:29:54.143Z,31.24
2023-08-24T09:32:35.862Z,31.45
2023-08-24T09:35:10.550Z,31.00
2023-08-24T09:37:39.581Z,30.55
2023-08-24T09:40:09.454Z,30.21
2023-08-24T09:42:43.371Z,29.98
2023-08-24T09:45:16.190Z,29.55
2023-08-24T09:47:53.720Z,29.31
2023-08-24T09:50:20.990Z,29.34
2023-08-24T09:52:52.035Z,28.27
2023-08-24T09:55:25.166Z,27.68
2023-08-24T09:57:56.207Z,27.95
2023-08-24T10:00:25.888Z,28.29
2023-08-24T10:02:55.325Z,27.63
2023-08-24T10:05:38.635Z,27.92
2023-08-24T10:08:10.884Z,27.75
2023-08-24T10:10:41.255Z,27.36
2023-08-24T10:13:20.342Z,26.58
2023-08-24T10:15:49.951Z,26.83
2023-08-24T10:18:19.520Z,27.49
2023-08-24T10:20:48.341Z,27.11
2023-08-24T10:23:17.740Z,26.89
2023-08-24T10:25:47.888Z,26.84
2023-08-24T10:28:17.743Z,26.39
2023-08-24T10:30:46.861Z,26.78
2023-08-24T10:33:15.976Z,26.56
2023-08-24T10:35:45.038Z,27.07
2023-08-24T10:38:28.515Z,26.87
2023-08-24T10:41:04.590Z,26.98
2023-08-24T10:43:38.510Z,26.62
2023-08-24T10:46:13.052Z,25.92
2023-08-24T10:48:43.243Z,26.22
2023-08-24T10:51:22.814Z,26.28
2023-08-24T10:53:54.057Z,25.87
2023-08-24T10:56:22.188Z,25.66
2023-08-24T10:59:19.378Z,25.87
2023-08-24T11:01:56.940Z,25.81
2023-08-24T11:04:24.437Z,26.40
2023-08-24T11:07:05.050Z,26.79
2023-08-24T11:09:50.853Z,27.35
2023-08-24T11:12:18.136Z,27.10
2023-08-24T11:14:56.032Z,27.37
2023-08-24T11:17:24.145Z,26.55
2023-08-24T11:19:54.642Z,26.67
2023-08-24T11:22:25.131Z,25.95
2023-08-24T11:24:52.480Z,26.13
2023-08-24T11:27:22.542Z,26.70
2023-08-24T11:30:01.309Z,26.91
2023-08-24T11:32:28.647Z,26.52
2023-08-24T11:34:56.265Z,26.58
2023-08-24T11:37:23.650Z,26.26
2023-08-24T11:39:50.997Z,25.98
2023-08-24T11:42:19.483Z,25.39
2023-08-24T11:44:50.833Z,24.85
2023-08-24T11:47:21.214Z,24.94
2023-08-24T11:49:48.488Z,25.43
2023-08-24T11:52:17.463Z,25.81
2023-08-24T11:54:45.839Z,25.95
2023-08-24T11:57:12.960Z,25.92
2023-08-24T11:59:44.617Z,26.06
2023-08-24T12:02:12.476Z,26.41
2023-08-24T12:04:44.558Z,25.80
2023-08-24T12:07:16.534Z,26.67
2023-08-24T12:09:44.213Z,26.64
2023-08-24T12:12:20.139Z,26.81
2023-08-24T12:14:48.945Z,26.04
2023-08-24T12:17:18.204Z,25.89
2023-08-24T12:19:59.121Z,25.57
2023-08-24T12:22:26.652Z,25.78
2023-08-24T12:24:53.865Z,25.63
2023-08-24T12:27:23.597Z,25.14
2023-08-24T12:29:51.123Z,24.50
2023-08-24T12:32:26.458Z,23.63
2023-08-24T12:34:55.888Z,24.63
2023-08-24T12:37:23.521Z,25.16
2023-08-24T12:39:50.678Z,25.81
2023-08-24T12:42:17.824Z,25.68
2023-08-24T12:44:45.059Z,26.68
2023-08-24T12:47:12.294Z,26.34
2023-08-24T12:49:39.519Z,25.83
2023-08-24T12:52:06.833Z,25.46
2023-08-24T12:54:33.958Z,23.77
2023-08-24T12:57:01.308Z,22.23
2023-08-24T12:59:28.435Z,20.99
2023-08-24T13:01:55.634Z,19.89
2023-08-24T13:04:22.727Z,19.03
2023-08-24T13:06:49.906Z,19.85
2023-08-24T13:09:17.952Z,20.46
2023-08-24T13:11:45.107Z,20.02
2023-08-24T13:14:12.401Z,19.51
2023-08-24T13:16:39.593Z,19.42
2023-08-24T13:19:06.687Z,18.79
2023-08-24T13:21:33.920Z,18.75
2023-08-24T13:24:01.114Z,19.17
2023-08-24T13:26:28.289Z,19.44
2023-08-24T13:28:55.719Z,20.13
2023-08-24T13:31:22.869Z,20.27
2023-08-24T13:33:49.972Z,20.10
2023-08-24T13:36:17.083Z,19.89
2023-08-24T13:38:45.910Z,19.41
2023-08-24T13:41:13.033Z,19.31
2023-08-24T13:43:41.124Z,18.51
2023-08-24T13:46:08.359Z,18.11
2023-08-24T13:48:35.765Z,17.80
2023-08-24T13:51:03.197Z,18.39
2023-08-24T13:53:30.498Z,18.07
2023-08-24T13:55:57.712Z,18.05
2023-08-24T13:58:24.886Z,18.12
2023-08-24T14:00:59.408Z,17.86
2023-08-24T14:03:26.771Z,18.03
2023-08-24T14:06:01.403Z,17.36
2023-08-24T14:08:28.691Z,17.46
2023-08-24T14:10:55.800Z,17.78
2023-08-24T14:13:23.046Z,17.96
2023-08-24T14:15:53.388Z,18.14
2023-08-24T14:18:21.335Z,18.00
2023-08-24T14:20:49.706Z,17.84
2023-08-24T14:23:16.890Z,18.08
2023-08-24T14:25:44.010Z,17.99
2023-08-24T14:28:11.816Z,17.79
2023-08-24T14:30:41.150Z,18.14
2023-08-24T14:33:08.397Z,17.79
2023-08-24T14:35:35.549Z,17.88
2023-08-24T14:38:02.938Z,18.17
2023-08-24T14:40:30.100Z,18.07
2023-08-24T14:42:57.323Z,18.11
2023-08-24T14:45:24.671Z,18.16
2023-08-24T14:47:52.192Z,17.36
2023-08-24T14:50:19.508Z,17.38
2023-08-24T14:52:46.711Z,17.43
2023-08-24T14:55:14.310Z,17.51
2023-08-24T14:57:41.560Z,17.38
2023-08-24T15:00:11.325Z,17.85
2023-08-24T15:02:38.737Z,17.38
2023-08-24T15:05:06.228Z,17.76
2023-08-24T15:07:33.379Z,17.63
2023-08-24T15:10:00.504Z,18.17
2023-08-24T15:12:27.674Z,17.85
2023-08-24T15:14:59.688Z,17.67
2023-08-24T15:17:28.137Z,17.98
2023-08-24T15:19:56.609Z,17.79
2023-08-24T15:22:25.132Z,18.23
2023-08-24T15:24:52.281Z,18.01
2023-08-24T15:27:19.840Z,18.20
2023-08-24T15:29:46.996Z,18.01
2023-08-24T15:32:14.369Z,17.70
2023-08-24T15:34:41.641Z,17.72
2023-08-24T15:37:08.810Z,18.12
2023-08-24T15:39:41.060Z,18.43
2023-08-24T15:42:08.981Z,18.21
2023-08-24T15:44:36.235Z,18.25
2023-08-24T15:47:03.687Z,18.31
2023-08-24T15:49:30.863Z,18.52
2023-08-24T15:51:58.071Z,18.97
2023-08-24T15:54:26.188Z,19.56
2023-08-24T15:56:56.772Z,20.09
2023-08-24T15:59:24.381Z,21.11
2023-08-24T16:01:52.631Z,21.12
2023-08-24T16:04:19.965Z,20.96
2023-08-24T16:06:47.411Z,20.05
2023-08-24T16:09:14.543Z,20.23
2023-08-24T16:11:41.640Z,20.36
2023-08-24T16:14:12.430Z,20.36
2023-08-24T16:16:39.695Z,20.97
2023-08-24T16:19:06.856Z,21.90
2023-08-24T16:21:33.880Z,22.80
2023-08-24T16:24:02.006Z,23.81
2023-08-24T16:26:29.775Z,24.56
2023-08-24T16:28:57.486Z,25.08
2023-08-24T16:31:24.679Z,25.43
2023-08-24T16:33:51.770Z,25.65
2023-08-24T16:36:18.919Z,25.99
2023-08-24T16:38:46.128Z,25.65
2023-08-24T16:41:13.217Z,25.17
2023-08-24T16:43:40.345Z,25.40
2023-08-24T16:46:07.484Z,25.75
2023-08-24T16:48:34.827Z,25.63
2023-08-24T16:51:01.939Z,25.78
2023-08-24T16:53:29.138Z,26.42
2023-08-24T16:55:56.996Z,27.04
2023-08-24T16:58:24.244Z,27.09
2023-08-24T17:00:51.586Z,27.00
2023-08-24T17:03:18.911Z,26.82
2023-08-24T17:05:46.068Z,26.13
2023-08-24T17:08:13.190Z,25.77
2023-08-24T17:10:40.672Z,24.96
2023-08-24T17:13:08.031Z,24.58
2023-08-24T17:15:35.159Z,24.38
2023-08-24T17:18:02.805Z,25.43
2023-08-24T17:20:30.474Z,26.57
2023-08-24T17:22:57.622Z,27.20
2023-08-24T17:25:24.866Z,27.69
2023-08-24T17:27:52.698Z,28.43
2023-08-24T17:30:20.343Z,29.22
2023-08-24T17:32:47.717Z,29.35
2023-08-24T17:35:16.362Z,29.47
2023-08-24T17:37:43.494Z,30.06
2023-08-24T17:40:13.918Z,30.41
2023-08-24T17:42:41.651Z,30.90
2023-08-24T17:45:10.062Z,31.07
2023-08-24T17:47:37.306Z,31.23
2023-08-24T17:50:05.927Z,32.28
2023-08-24T17:52:34.120Z,32.17
2023-08-24T17:55:04.652Z,33.46
2023-08-24T17:57:31.844Z,33.55
2023-08-24T17:59:59.490Z,33.82
2023-08-24T18:02:28.779Z,34.30
2023-08-24T18:04:56.018Z,34.80
2023-08-24T18:07:23.243Z,34.50
2023-08-24T18:09:50.396Z,34.71
2023-08-24T18:12:17.568Z,35.11
2023-08-24T18:14:44.799Z,35.13
2023-08-24T18:17:12.034Z,35.32
2023-08-24T18:19:40.160Z,35.62
2023-08-24T18:22:07.390Z,36.28
2023-08-24T18:24:34.909Z,37.63
2023-08-24T18:27:02.212Z,37.93
2023-08-24T18:29:29.422Z,38.35
2023-08-24T18:31:56.617Z,37.43
2023-08-24T18:34:26.411Z,37.46
2023-08-24T18:36:53.645Z,37.58
2023-08-24T18:39:20.827Z,37.86
2023-08-24T18:41:49.508Z,38.09
2023-08-24T18:44:19.008Z,39.58
2023-08-24T18:46:48.030Z,38.88
2023-08-24T18:49:17.016Z,39.69
2023-08-24T18:51:46.880Z,40.42
2023-08-24T18:54:14.050Z,40.31
2023-08-24T18:56:41.192Z,39.34
2023-08-24T18:59:08.318Z,39.81
2023-08-24T19:01:37.172Z,40.84
2023-08-24T19:04:04.534Z,40.80
2023-08-24T19:06:38.383Z,40.01
2023-08-24T19:09:13.758Z,40.57
2023-08-24T19:11:40.959Z,39.54
2023-08-24T19:14:08.123Z,39.92
2023-08-24T19:16:35.199Z,39.37
2023-08-24T19:19:02.651Z,39.81
2023-08-24T19:21:31.583Z,40.51
2023-08-24T19:23:58.817Z,40.56
2023-08-24T19:26:26.044Z,40.85
2023-08-24T19:28:53.506Z,40.58
2023-08-24T19:31:21.020Z,40.50
2023-08-24T19:33:50.094Z,40.07
2023-08-24T19:36:17.201Z,40.14
2023-08-24T19:38:44.377Z,40.86
2023-08-24T19:41:12.478Z,41.47
2023-08-24T19:43:39.661Z,41.19
2023-08-24T19:46:07.242Z,41.06
2023-08-24T19:48:34.644Z,41.29
2023-08-24T19:51:01.955Z,41.44
2023-08-24T19:53:29.173Z,40.30
2023-08-24T19:55:56.394Z,39.90
2023-08-24T19:58:23.748Z,39.73
2023-08-24T20:00:57.629Z,40.88
2023-08-24T20:03:25.093Z,41.31
2023-08-24T20:05:58.777Z,41.54
2023-08-24T20:08:29.358Z,41.60
2023-08-24T20:10:57.987Z,41.22
2023-08-24T20:13:25.340Z,41.32
2023-08-24T20:15:52.421Z,41.67
2023-08-24T20:18:19.636Z,41.76
2023-08-24T20:20:47.861Z,42.45
2023-08-24T20:23:15.016Z,42.85
2023-08-24T20:25:43.017Z,43.43
2023-08-24T20:28:10.153Z,42.67
2023-08-24T20:30:41.210Z,43.07
2023-08-24T20:33:08.542Z,43.12
2023-08-24T20:35:45.108Z,43.34
2023-08-24T20:38:12.228Z,43.59
2023-08-24T20:40:39.449Z,43.28
2023-08-24T20:43:06.562Z,43.09
2023-08-24T20:45:33.690Z,43.27
2023-08-24T20:48:00.897Z,43.59
2023-08-24T20:50:28.285Z,43.22
2023-08-24T20:52:55.421Z,43.36
2023-08-24T20:55:22.517Z,43.24
2023-08-24T20:57:49.635Z,43.54
2023-08-24T21:00:16.951Z,44.15
2023-08-24T21:02:44.184Z,44.16
2023-08-24T21:05:14.078Z,43.93
2023-08-24T21:07:41.280Z,43.84
2023-08-24T21:10:09.003Z,44.04
2023-08-24T21:12:36.145Z,44.08
2023-08-24T21:15:03.462Z,44.53
2023-08-24T21:17:30.705Z,43.83
2023-08-24T21:19:58.731Z,44.35
2023-08-24T21:22:26.161Z,43.63
2023-08-24T21:24:53.397Z,43.94
2023-08-24T21:27:20.515Z,43.81
2023-08-24T21:29:50.771Z,44.46
2023-08-24T21:32:18.054Z,44.20
2023-08-24T21:34:45.237Z,43.86
2023-08-24T21:37:12.339Z,43.41
2023-08-24T21:39:39.962Z,43.29
2023-08-24T21:42:07.274Z,43.46
2023-08-24T21:44:34.446Z,44.17
2023-08-24T21:47:01.986Z,44.16
2023-08-24T21:49:29.109Z,44.23
2023-08-24T21:51:56.273Z,44.34
2023-08-24T21:54:23.424Z,44.41
2023-08-24T21:56:50.605Z,44.33
2023-08-24T21:59:17.761Z,43.41
2023-08-24T22:01:45.559Z,43.36
2023-08-24T22:04:13.019Z,43.28
2023-08-24T22:06:41.014Z,43.46
2023-08-24T22:09:08.224Z,43.68
2023-08-24T22:11:35.400Z,44.00
2023-08-24T22:14:02.523Z,44.08
2023-08-24T22:16:30.272Z,44.20
2023-08-24T22:18:57.478Z,44.55
2023-08-24T22:21:27.494Z,44.38
2023-08-24T22:23:54.676Z,43.99
2023-08-24T22:26:22.339Z,43.66
2023-08-24T22:28:49.458Z,43.79
2023-08-24T22:31:16.593Z,44.06
2023-08-24T22:33:43.875Z,44.18
2023-08-24T22:36:11.020Z,43.39
2023-08-24T22:38:38.083Z,43.21
2023-08-24T22:41:05.291Z,42.83
2023-08-24T22:43:32.542Z,42.96
2023-08-24T22:45:59.920Z,43.35
2023-08-24T22:48:27.729Z,43.61
2023-08-24T22:50:54.906Z,43.43
2023-08-24T22:53:22.120Z,43.08
2023-08-24T22:55:50.250Z,43.07
2023-08-24T22:58:17.467Z,43.32
2023-08-24T23:00:44.575Z,43.40
2023-08-24T23:03:12.833Z,43.21
2023-08-24T23:05:41.338Z,43.19
2023-08-24T23:08:08.685Z,42.98
2023-08-24T23:10:35.824Z,43.52
2023-08-24T23:13:03.101Z,43.67
2023-08-24T23:15:30.262Z,44.06
2023-08-24T23:17:57.634Z,44.09
2023-08-24T23:20:24.905Z,44.40
2023-08-24T23:22:52.010Z,44.47
2023-08-24T23:25:19.145Z,44.53
2023-08-24T23:27:46.250Z,44.66
2023-08-24T23:30:14.285Z,44.45
2023-08-24T23:32:41.544Z,44.47
2023-08-24T23:35:09.700Z,44.15
2023-08-24T23:37:38.782Z,44.22
2023-08-24T23:40:06.978Z,44.77
2023-08-24T23:42:34.140Z,44.55
2023-08-24T23:45:01.198Z,44.19
2023-08-24T23:47:28.607Z,44.22
2023-08-24T23:49:55.842Z,44.43
2023-08-24T23:52:22.913Z,44.35
2023-08-24T23:54:50.427Z,44.28
2023-08-24T23:57:19.385Z,44.34
2023-08-24T23:59:46.603Z,43.80
